Time;durP1;ratioP1;P1;durP2;ratioP2;P2;SDS_P1;SDS_P2;PMS_P1;PMS_P2;Temp;Humidity;BMP_temperature;BMP_pressure;BME280_temperature;BME280_humidity;BME280_pressure;Samples;Min_cycle;Max_cycle;Signal;HPM_P1;HPM_P2
2022/09/02 00:00:33;;;;;;;4.22;1.88;;;;;;;24.66;40.84;102091.69;4998078;28;20046;-63
2022/09/02 00:02:59;;;;;;;4.30;1.70;;;;;;;24.65;40.84;102087.38;4996652;28;20037;-63
2022/09/02 00:05:24;;;;;;;2.40;1.50;;;;;;;24.59;40.83;102094.25;4995528;28;20053;-63
2022/09/02 00:07:50;;;;;;;3.58;1.67;;;;;;;24.63;41.09;102095.56;5002574;28;20084;-63
2022/09/02 00:10:16;;;;;;;2.53;1.60;;;;;;;24.57;40.88;102093.59;4998991;28;20089;-63
2022/09/02 00:12:41;;;;;;;4.15;1.83;;;;;;;24.58;41.00;102097.09;4995803;28;20042;-63
2022/09/02 00:15:07;;;;;;;1.80;1.40;;;;;;;24.58;41.12;102089.94;5000311;28;20038;-63
2022/09/02 00:17:33;;;;;;;2.35;1.65;;;;;;;24.55;41.06;102089.47;4995107;28;20053;-63
2022/09/02 00:19:58;;;;;;;3.25;1.70;;;;;;;24.58;41.13;102086.44;4982239;28;20567;-63
2022/09/02 00:22:24;;;;;;;2.33;1.50;;;;;;;24.55;41.03;102086.81;4996101;28;20050;-63
2022/09/02 00:24:50;;;;;;;3.00;1.77;;;;;;;24.49;41.10;102088.38;4997088;28;20049;-63
2022/09/02 00:27:15;;;;;;;1.63;1.50;;;;;;;24.50;41.17;102081.19;4998521;28;20042;-62
2022/09/02 00:29:41;;;;;;;3.60;2.03;;;;;;;24.52;41.04;102080.00;4977148;28;20041;-63
2022/09/02 00:32:06;;;;;;;3.25;1.70;;;;;;;24.51;40.96;102081.03;4995941;28;20040;-63
2022/09/02 00:34:32;;;;;;;1.75;1.50;;;;;;;24.55;40.93;102086.81;4997139;28;20046;-63
2022/09/02 00:36:58;;;;;;;2.65;1.80;;;;;;;24.52;40.91;102077.34;5000782;28;22167;-62
2022/09/02 00:39:24;;;;;;;1.92;1.30;;;;;;;24.52;41.04;102080.00;4983178;28;20097;-63
2022/09/02 00:41:51;;;;;;;1.80;1.60;;;;;;;24.50;41.03;102075.88;4991784;28;20041;-63
2022/09/02 00:44:18;;;;;;;3.33;1.80;;;;;;;24.45;41.01;102068.44;4963639;28;20034;-63
2022/09/02 00:46:45;;;;;;;3.25;1.70;;;;;;;24.47;41.01;102060.25;5001311;28;20069;-63
2022/09/02 00:49:42;;;;;;;2.60;1.80;;;;;;;24.49;40.79;102064.41;4998498;28;20121;-63
2022/09/02 00:52:30;;;;;;;1.98;1.40;;;;;;;24.49;40.78;102052.91;4966651;28;20062;-63
2022/09/02 00:55:01;;;;;;;1.35;1.25;;;;;;;24.48;40.62;102060.09;4997978;28;20132;-63
2022/09/02 00:57:59;;;;;;;2.55;1.77;;;;;;;24.54;40.52;102053.19;4997362;28;20044;-63
2022/09/02 01:00:28;;;;;;;1.40;1.30;;;;;;;24.44;40.73;102058.81;4985747;28;20054;-62
2022/09/02 01:03:07;;;;;;;1.65;1.40;;;;;;;24.41;40.79;102051.16;4997199;28;20025;-62
2022/09/02 01:05:38;;;;;;;2.67;1.90;;;;;;;24.39;40.93;102061.97;4997526;28;20042;-62
2022/09/02 01:08:08;;;;;;;1.73;1.50;;;;;;;24.46;40.91;102056.78;4996595;28;20037;-62
2022/09/02 01:10:34;;;;;;;4.25;1.70;;;;;;;24.43;40.92;102061.66;4994931;28;20045;-63
2022/09/02 01:13:10;;;;;;;2.47;1.50;;;;;;;24.44;40.84;102048.16;4980888;28;20484;-62
2022/09/02 01:15:42;;;;;;;3.85;2.00;;;;;;;24.42;40.79;102052.81;4991678;28;20034;-62
2022/09/02 01:18:12;;;;;;;2.30;1.70;;;;;;;24.35;40.90;102051.88;4997028;28;20349;-62
2022/09/02 01:20:38;;;;;;;;;;;;;;;24.41;40.89;102048.47;4998002;28;20080;-63
2022/09/02 01:23:05;;;;;;;1.40;1.30;;;;;;;24.40;40.80;102041.50;4995215;28;19917;-62
2022/09/02 01:25:32;;;;;;;3.13;1.58;;;;;;;24.40;40.93;102042.34;4986291;28;20088;-62
2022/09/02 01:28:04;;;;;;;1.52;1.40;;;;;;;24.35;40.92;102043.88;4998826;28;20051;-63
2022/09/02 01:30:30;;;;;;;1.95;1.50;;;;;;;24.36;40.88;102040.22;4976458;28;20144;-62
2022/09/02 01:32:56;;;;;;;3.30;1.70;;;;;;;24.37;40.92;102044.53;4980696;28;20038;-62
2022/09/02 01:35:22;;;;;;;2.40;1.50;;;;;;;24.35;40.85;102039.38;4978350;28;20742;-63
2022/09/02 01:37:48;;;;;;;2.30;1.55;;;;;;;24.33;40.93;102037.94;4995998;28;20298;-62
2022/09/02 01:40:16;;;;;;;1.85;1.40;;;;;;;24.32;40.69;102030.94;4996168;28;20058;-62
2022/09/02 01:42:43;;;;;;;2.20;1.30;;;;;;;24.36;41.00;102030.41;4975449;28;20104;-63
2022/09/02 01:45:10;;;;;;;1.92;1.70;;;;;;;24.30;41.01;102030.31;4978742;28;20549;-62
2022/09/02 01:47:36;;;;;;;2.40;1.80;;;;;;;24.34;40.82;102026.25;4977876;28;20030;-62
2022/09/02 01:50:07;;;;;;;1.65;1.50;;;;;;;24.32;40.94;102030.94;4994984;28;20507;-62
2022/09/02 01:52:34;;;;;;;1.48;1.38;;;;;;;24.27;41.02;102018.16;4977565;28;20030;-63
2022/09/02 01:55:00;;;;;;;1.60;1.50;;;;;;;24.31;40.81;102024.78;4993166;28;20128;-63
2022/09/02 01:57:25;;;;;;;2.00;1.55;;;;;;;24.27;40.90;102017.31;4983873;28;20170;-63
2022/09/02 01:59:53;;;;;;;2.20;1.60;;;;;;;24.27;40.89;102018.16;4979148;28;20474;-63
2022/09/02 02:02:20;;;;;;;1.95;1.75;;;;;;;24.31;40.83;102010.66;4978072;28;20042;-63
2022/09/02 02:04:47;;;;;;;1.52;1.42;;;;;;;24.29;40.82;102010.84;4978206;28;20065;-63
2022/09/02 02:07:16;;;;;;;2.67;1.50;;;;;;;24.28;40.70;102014.47;4979340;28;20108;-63
2022/09/02 02:09:42;;;;;;;2.78;1.70;;;;;;;24.28;40.73;102014.47;4978490;28;20756;-62
2022/09/02 02:12:11;;;;;;;1.75;1.58;;;;;;;24.28;40.57;102013.66;4998128;28;20045;-63
2022/09/02 02:14:37;;;;;;;2.13;1.50;;;;;;;24.29;40.53;102010.03;4978067;28;20484;-63
2022/09/02 02:17:03;;;;;;;1.60;1.50;;;;;;;24.26;40.60;102007.69;4977567;28;20058;-63
2022/09/02 02:19:29;;;;;;;2.38;1.58;;;;;;;24.18;40.89;101999.75;4978864;28;20045;-63
2022/09/02 02:21:55;;;;;;;1.98;1.50;;;;;;;24.22;40.81;102007.19;4994474;28;20142;-63
2022/09/02 02:24:22;;;;;;;1.48;1.38;;;;;;;24.23;40.82;102008.03;4973377;28;20082;-63
2022/09/02 02:26:47;;;;;;;3.42;1.60;;;;;;;24.15;40.88;102003.63;4992670;28;20708;-63
2022/09/02 02:29:15;;;;;;;2.78;1.55;;;;;;;24.23;40.72;102005.38;4994338;28;20127;-63
2022/09/02 02:31:42;;;;;;;2.00;1.58;;;;;;;24.18;40.70;102003.25;4979991;28;20046;-63
2022/09/02 02:34:09;;;;;;;1.38;1.30;;;;;;;24.19;40.80;102004.91;4974710;28;20116;-63
2022/09/02 02:36:36;;;;;;;2.33;1.48;;;;;;;24.18;40.88;102002.44;4974738;28;20622;-63
2022/09/02 02:39:06;;;;;;;1.73;1.50;;;;;;;24.19;40.92;102006.75;4981130;28;20088;-63
2022/09/02 02:41:32;;;;;;;1.35;1.20;;;;;;;24.22;40.82;102003.72;4974920;28;20085;-63
2022/09/02 02:43:59;;;;;;;1.65;1.50;;;;;;;24.18;41.00;101999.75;4995296;28;20042;-63
2022/09/02 02:46:25;;;;;;;2.13;1.35;;;;;;;24.15;40.95;102000.13;4980479;28;20554;-63
2022/09/02 02:48:50;;;;;;;3.72;1.60;;;;;;;24.16;40.96;101996.47;4980370;28;20042;-63
2022/09/02 02:51:16;;;;;;;2.00;1.48;;;;;;;24.16;41.02;102001.78;4976878;28;20128;-62
2022/09/02 02:53:43;;;;;;;1.85;1.60;;;;;;;24.15;40.81;101997.47;4980265;28;20128;-63
2022/09/02 02:56:10;;;;;;;2.33;1.65;;;;;;;24.15;40.75;101995.63;4995798;28;20381;-63
2022/09/02 02:58:36;;;;;;;1.63;1.25;;;;;;;24.16;40.96;102001.78;4981207;28;20587;-63
2022/09/02 03:01:01;;;;;;;1.88;1.70;;;;;;;24.14;40.75;101991.31;4975759;28;20042;-63
2022/09/02 03:03:28;;;;;;;2.42;1.60;;;;;;;24.10;40.97;101995.34;4991264;28;20049;-63
2022/09/02 03:05:55;;;;;;;1.92;1.50;;;;;;;24.11;40.98;101994.34;4977769;28;20635;-63
2022/09/02 03:08:24;;;;;;;2.92;1.73;;;;;;;24.10;40.96;101993.53;4995931;28;20049;-63
2022/09/02 03:10:52;;;;;;;1.85;1.67;;;;;;;24.13;40.92;101997.66;4977888;28;20640;-63
2022/09/02 03:13:20;;;;;;;3.45;1.73;;;;;;;24.10;40.89;101995.34;4978441;28;20132;-63
2022/09/02 03:15:47;;;;;;;2.38;1.60;;;;;;;24.15;40.86;101989.50;4997262;28;20034;-63
2022/09/02 03:18:13;;;;;;;2.50;1.50;;;;;;;24.05;40.95;101979.91;4980616;28;20391;-63
2022/09/02 03:20:40;;;;;;;2.58;1.35;;;;;;;24.10;40.88;101985.53;4983391;28;20072;-63
2022/09/02 03:23:07;;;;;;;1.48;1.38;;;;;;;24.07;41.01;101985.06;4983791;28;20038;-62
2022/09/02 03:25:34;;;;;;;2.42;1.70;;;;;;;24.06;40.94;101992.22;4997668;28;20083;-62
2022/09/02 03:28:02;;;;;;;1.70;1.60;;;;;;;24.05;40.88;101987.88;4982632;28;20080;-63
2022/09/02 03:30:30;;;;;;;1.40;1.30;;;;;;;24.04;41.03;101986.25;4983134;28;20112;-63
2022/09/02 03:32:59;;;;;;;2.25;1.70;;;;;;;24.13;40.90;101984.34;4964098;28;20040;-63
2022/09/02 03:35:26;;;;;;;1.77;1.60;;;;;;;24.10;40.89;101977.56;4981814;28;20030;-63
2022/09/02 03:37:53;;;;;;;2.63;1.77;;;;;;;24.07;41.05;101977.91;4978105;28;20472;-63
2022/09/02 03:40:22;;;;;;;1.35;1.25;;;;;;;24.10;40.86;101982.06;5000554;28;20049;-63
2022/09/02 03:42:52;;;;;;;1.80;1.55;;;;;;;24.04;40.91;101985.41;4995797;28;20030;-63
2022/09/02 03:45:19;;;;;;;1.50;1.40;;;;;;;23.99;41.13;101969.16;4996265;28;20037;-63
2022/09/02 03:47:52;;;;;;;1.40;1.30;;;;;;;24.06;41.09;101975.44;4975774;28;20091;-63
2022/09/02 03:50:24;;;;;;;3.17;1.95;;;;;;;24.01;41.12;101973.31;4998908;28;20052;-63
2022/09/02 03:52:52;;;;;;;1.67;1.50;;;;;;;24.03;41.00;101973.94;4983075;28;20803;-63
2022/09/02 03:55:19;;;;;;;1.90;1.67;;;;;;;24.01;41.03;101967.16;4979330;28;20046;-63
2022/09/02 03:57:45;;;;;;;1.40;1.30;;;;;;;23.99;41.01;101969.16;4984443;28;20045;-63
2022/09/02 04:00:14;;;;;;;2.65;1.65;;;;;;;24.00;41.11;101969.00;4981695;28;20049;-63
2022/09/02 04:02:40;;;;;;;2.22;1.77;;;;;;;23.98;41.17;101965.69;4998380;28;20550;-63
2022/09/02 04:05:08;;;;;;;2.25;1.80;;;;;;;24.01;40.98;101967.97;4994955;28;20034;-63
2022/09/02 04:07:33;;;;;;;1.50;1.33;;;;;;;24.00;40.86;101963.66;4982974;28;20038;-67
2022/09/02 04:10:01;;;;;;;1.48;1.38;;;;;;;23.96;41.27;101958.88;4980147;28;20077;-67
2022/09/02 04:12:29;;;;;;;1.73;1.60;;;;;;;23.96;41.20;101956.22;4982981;28;20396;-67
2022/09/02 04:14:54;;;;;;;3.00;1.80;;;;;;;23.94;41.12;101961.72;4978934;28;20045;-67
2022/09/02 04:17:20;;;;;;;1.77;1.67;;;;;;;23.95;41.29;101952.75;4983697;28;20038;-74
2022/09/02 04:19:45;;;;;;;2.58;1.75;;;;;;;23.98;41.14;101951.56;4982420;28;20044;-74
2022/09/02 04:22:11;;;;;;;1.95;1.45;;;;;;;23.92;41.24;101952.28;4982396;28;20504;-74
2022/09/02 04:24:38;;;;;;;2.33;1.60;;;;;;;23.92;41.29;101949.63;4979523;28;20069;-75
2022/09/02 04:27:03;;;;;;;2.60;1.50;;;;;;;23.92;41.17;101949.63;4999353;28;20033;-74
2022/09/02 04:29:31;;;;;;;2.67;1.40;;;;;;;23.93;41.15;101953.94;4978353;28;20064;-75
2022/09/02 04:31:59;;;;;;;1.65;1.50;;;;;;;23.90;40.96;101949.81;4935112;28;20045;-73
2022/09/02 04:34:25;;;;;;;1.92;1.65;;;;;;;23.95;40.83;101951.91;4967385;28;20037;-73
2022/09/02 04:36:52;;;;;;;1.65;1.50;;;;;;;23.90;40.89;101951.63;4982283;28;20742;-73
2022/09/02 04:39:18;;;;;;;1.55;1.40;;;;;;;23.90;41.00;101951.63;4977364;28;20046;-73
2022/09/02 04:41:44;;;;;;;2.35;1.80;;;;;;;23.91;41.17;101947.97;4980659;28;20029;-74
2022/09/02 04:44:12;;;;;;;1.70;1.60;;;;;;;23.87;41.14;101950.13;4979073;28;20424;-75
2022/09/02 04:46:41;;;;;;;1.93;1.83;;;;;;;23.88;41.27;101951.81;4977248;28;20476;-73
2022/09/02 04:49:11;;;;;;;2.30;1.63;;;;;;;23.90;41.04;101951.63;4980531;28;20053;-73
2022/09/02 04:51:38;;;;;;;2.10;1.70;;;;;;;23.84;41.24;101950.50;4964303;28;20121;-74
2022/09/02 04:54:06;;;;;;;2.90;1.60;;;;;;;23.87;41.09;101950.13;4979749;28;20038;-73
2022/09/02 04:56:34;;;;;;;1.92;1.65;;;;;;;23.84;41.22;101947.84;4978976;28;20714;-75
2022/09/02 04:59:02;;;;;;;1.67;1.58;;;;;;;23.85;41.11;101946.00;4979549;28;20128;-73
2022/09/02 05:01:31;;;;;;;1.65;1.52;;;;;;;23.88;40.96;101946.50;4977944;28;20026;-73
2022/09/02 05:04:01;;;;;;;1.85;1.65;;;;;;;23.80;41.12;101952.69;4965573;28;20196;-73
2022/09/02 05:06:32;;;;;;;1.73;1.60;;;;;;;23.82;41.22;101952.53;4972923;28;20125;-73
2022/09/02 05:09:00;;;;;;;2.17;1.70;;;;;;;23.83;41.04;101951.50;4979574;28;20037;-73
2022/09/02 05:11:30;;;;;;;;;;;;;;;23.85;41.01;101948.66;4980313;28;20068;-73
2022/09/02 05:13:59;;;;;;;1.73;1.60;;;;;;;23.74;41.27;101939.31;4979289;28;20373;-73
2022/09/02 05:16:29;;;;;;;2.35;1.70;;;;;;;23.78;41.17;101948.56;4993239;28;20033;-72
2022/09/02 05:18:56;;;;;;;1.48;1.38;;;;;;;23.91;41.15;101943.47;4992702;28;20097;-71
2022/09/02 05:21:24;;;;;;;3.30;1.88;;;;;;;23.93;41.19;101948.63;4994253;28;20058;-70
2022/09/02 05:23:51;;;;;;;2.55;2.20;;;;;;;23.94;41.00;101942.28;4981694;28;20029;-71
2022/09/02 05:26:18;;;;;;;3.35;1.88;;;;;;;23.93;41.01;101948.63;4980115;28;20053;-70
2022/09/02 05:28:45;;;;;;;2.10;1.55;;;;;;;23.95;40.92;101939.44;4995220;28;20691;-71
2022/09/02 05:31:14;;;;;;;10.95;2.30;;;;;;;23.92;41.06;101937.16;4993299;28;20069;-71
2022/09/02 05:33:41;;;;;;;3.88;1.80;;;;;;;23.92;41.09;101942.47;4978468;28;20065;-70
2022/09/02 05:36:18;;;;;;;1.73;1.63;;;;;;;23.94;41.09;101942.28;4988631;28;20137;-71
2022/09/02 05:38:45;;;;;;;1.95;1.65;;;;;;;23.96;41.24;101946.41;4980516;28;20879;-70
2022/09/02 05:41:22;;;;;;;2.05;1.60;;;;;;;23.98;41.03;101940.91;4970511;28;20046;-71
2022/09/02 05:43:52;;;;;;;3.65;2.00;;;;;;;23.92;41.04;101931.81;4978401;28;20724;-71
2022/09/02 05:46:22;;;;;;;2.03;1.50;;;;;;;23.96;40.98;101935.78;4980233;28;20128;-71
2022/09/02 05:49:07;;;;;;;1.85;1.70;;;;;;;23.95;41.07;101941.28;4978568;28;20030;-71
2022/09/02 05:51:50;;;;;;;3.53;1.80;;;;;;;23.95;40.82;101935.97;4980103;28;20727;-71
2022/09/02 05:54:23;;;;;;;1.77;1.50;;;;;;;23.95;40.86;101939.44;4983620;28;20033;-71
2022/09/02 05:56:53;;;;;;;2.10;1.85;;;;;;;23.98;40.77;101936.41;4981550;28;20087;-71
2022/09/02 05:59:21;;;;;;;2.15;1.70;;;;;;;23.92;40.85;101931.81;4996474;28;20500;-72
2022/09/02 06:01:47;;;;;;;1.98;1.85;;;;;;;23.99;40.40;101935.41;4999816;28;20021;-73
2022/09/02 06:04:13;;;;;;;2.50;1.80;;;;;;;23.99;40.44;101932.75;4997572;28;20073;-72
2022/09/02 06:06:40;;;;;;;1.85;1.40;;;;;;;23.93;40.41;101928.16;4998097;28;20037;-72
2022/09/02 06:09:10;;;;;;;2.67;1.73;;;;;;;23.89;40.43;101926.88;4980148;28;20153;-72
2022/09/02 06:11:45;;;;;;;3.80;1.92;;;;;;;23.94;40.66;101927.16;4995930;28;20034;-70
2022/09/02 06:14:15;;;;;;;2.80;1.55;;;;;;;23.97;40.83;101926.78;4979787;28;20741;-70
2022/09/02 06:16:42;;;;;;;2.58;1.75;;;;;;;23.98;40.62;101923.13;4995033;28;20025;-70
2022/09/02 06:19:16;;;;;;;2.00;1.70;;;;;;;24.03;40.65;101927.88;4979905;28;20038;-70
2022/09/02 06:21:42;;;;;;;2.13;1.50;;;;;;;24.03;40.60;101925.22;4980203;28;20594;-70
2022/09/02 06:24:12;;;;;;;1.50;1.40;;;;;;;24.07;40.61;101935.34;4983901;28;20029;-70
2022/09/02 06:26:39;;;;;;;2.58;1.77;;;;;;;24.04;40.49;101932.19;4978689;28;20127;-70
2022/09/02 06:29:07;;;;;;;2.33;1.55;;;;;;;24.04;40.58;101933.03;4981678;28;20046;-70
2022/09/02 06:31:32;;;;;;;1.80;1.50;;;;;;;24.07;40.63;101930.03;4985178;28;20650;-70
2022/09/02 06:33:58;;;;;;;1.60;1.50;;;;;;;24.08;40.54;101933.50;4983528;28;20129;-70
2022/09/02 06:36:27;;;;;;;1.92;1.73;;;;;;;24.04;40.57;101927.69;4995017;28;20040;-70
2022/09/02 06:38:54;;;;;;;1.55;1.40;;;;;;;24.11;40.63;101933.97;4985139;28;20047;-70
2022/09/02 06:41:27;;;;;;;1.90;1.50;;;;;;;24.13;40.53;101936.44;4997137;28;20026;-70
2022/09/02 06:43:58;;;;;;;1.95;1.85;;;;;;;24.14;40.54;101939.94;4976814;28;20029;-70
2022/09/02 06:46:28;;;;;;;1.85;1.70;;;;;;;24.16;40.24;101937.91;4982317;28;20038;-70
2022/09/02 06:48:56;;;;;;;2.63;1.50;;;;;;;24.15;40.45;101937.09;4987107;28;20173;-70
2022/09/02 06:51:44;;;;;;;2.13;1.90;;;;;;;24.19;40.35;101935.72;4991300;28;20037;-70
2022/09/02 06:54:15;;;;;;;1.90;1.70;;;;;;;24.21;40.33;101938.19;4986514;28;20041;-70
2022/09/02 06:56:43;;;;;;;2.47;1.92;;;;;;;24.22;40.39;101924.69;4988581;28;20038;-70
2022/09/02 06:59:09;;;;;;;2.92;1.58;;;;;;;24.25;40.16;101929.69;4982660;28;20062;-70
2022/09/02 07:01:41;;;;;;;3.42;1.77;;;;;;;24.21;40.51;101923.03;5003419;28;20038;-70
2022/09/02 07:06:53;;;;;;;2.30;1.77;;;;;;;24.28;40.44;101925.81;4998955;28;20037;-70
2022/09/02 07:09:29;;;;;;;1.80;1.63;;;;;;;24.28;40.40;101917.84;4986997;28;20751;-70
2022/09/02 07:11:58;;;;;;;1.67;1.42;;;;;;;24.30;40.18;101921.16;4986309;28;20462;-70
2022/09/02 07:14:26;;;;;;;4.38;1.70;;;;;;;24.32;40.41;101919.97;4994327;28;20045;-70
2022/09/02 07:16:56;;;;;;;2.50;1.80;;;;;;;24.34;40.43;101928.59;4991391;28;20069;-70
2022/09/02 07:19:24;;;;;;;1.65;1.52;;;;;;;24.32;40.34;101919.97;4983507;28;20030;-70
2022/09/02 07:21:51;;;;;;;2.05;1.52;;;;;;;24.33;40.27;101915.47;4955689;28;20404;-70
2022/09/02 07:24:19;;;;;;;2.13;1.90;;;;;;;24.33;40.49;101918.13;4978712;28;20374;-70
2022/09/02 07:26:44;;;;;;;2.22;1.65;;;;;;;24.31;40.31;101906.84;4967067;28;20093;-70
2022/09/02 07:29:12;;;;;;;1.60;1.50;;;;;;;24.39;40.44;101917.38;4962279;28;20059;-70
2022/09/02 07:31:41;;;;;;;2.42;1.52;;;;;;;24.37;40.32;101914.91;4963350;28;20039;-70
2022/09/02 07:34:09;;;;;;;3.63;1.70;;;;;;;24.37;40.48;101911.44;4962260;28;20034;-70
2022/09/02 07:36:37;;;;;;;2.03;1.83;;;;;;;24.41;40.24;101916.19;4962190;28;20575;-70
2022/09/02 07:39:05;;;;;;;1.55;1.45;;;;;;;24.40;40.32;101919.88;4970680;28;20112;-70
2022/09/02 07:41:31;;;;;;;2.47;1.50;;;;;;;24.38;40.47;101916.56;4964911;28;20035;-70
2022/09/02 07:43:57;;;;;;;1.50;1.40;;;;;;;24.43;40.41;101913.38;4965555;28;20049;-70
2022/09/02 07:46:23;;;;;;;3.15;1.52;;;;;;;24.43;40.33;101916.03;4962394;28;20489;-70
2022/09/02 07:48:49;;;;;;;1.73;1.63;;;;;;;24.47;40.21;101917.31;4954083;28;20042;-70
2022/09/02 07:51:17;;;;;;;1.50;1.40;;;;;;;24.49;40.06;101909.13;4965005;28;20131;-71
2022/09/02 07:53:44;;;;;;;1.88;1.52;;;;;;;24.50;40.27;101910.78;4964331;28;20038;-70
2022/09/02 07:56:12;;;;;;;2.88;1.52;;;;;;;24.46;40.39;101905.00;4963483;28;20049;-71
2022/09/02 07:58:43;;;;;;;3.17;1.52;;;;;;;24.48;40.31;101908.31;4964758;28;20035;-71
2022/09/02 08:01:10;;;;;;;1.90;1.80;;;;;;;24.46;40.29;101902.34;4966774;28;20431;-71
2022/09/02 08:03:41;;;;;;;2.15;1.63;;;;;;;24.47;40.24;101906.66;4977947;28;20030;-71
2022/09/02 08:06:09;;;;;;;2.80;1.50;;;;;;;24.46;40.36;101898.88;4964881;28;20035;-71
2022/09/02 08:08:34;;;;;;;3.78;1.52;;;;;;;24.49;40.35;101904.63;4964635;28;20119;-70
2022/09/02 08:11:00;;;;;;;2.13;1.63;;;;;;;24.53;40.15;101902.44;4964934;28;20047;-70
2022/09/02 08:13:26;;;;;;;2.13;1.60;;;;;;;24.51;40.45;101897.28;4963557;28;20043;-70
2022/09/02 08:15:51;;;;;;;2.13;1.65;;;;;;;24.53;40.36;101897.91;4964619;28;20145;-70
2022/09/02 08:18:18;;;;;;;1.45;1.35;;;;;;;24.53;40.38;101900.59;4964707;28;20081;-71
2022/09/02 08:20:43;;;;;;;1.50;1.40;;;;;;;24.51;40.46;101901.78;4966542;28;20050;-70
2022/09/02 08:23:10;;;;;;;1.58;1.48;;;;;;;24.53;40.42;101900.59;5002031;28;20037;-70
2022/09/02 08:25:36;;;;;;;1.80;1.70;;;;;;;24.53;40.47;101899.75;5004229;28;20045;-70
2022/09/02 08:28:02;;;;;;;1.70;1.50;;;;;;;24.55;40.46;101901.22;4999082;28;21764;-71
2022/09/02 08:30:31;;;;;;;1.90;1.45;;;;;;;24.55;40.35;101901.22;5005613;28;20063;-71
2022/09/02 08:32:56;;;;;;;2.22;1.90;;;;;;;24.58;40.50;101898.19;4999795;28;20088;-71
2022/09/02 08:35:22;;;;;;;1.77;1.67;;;;;;;24.58;40.40;101897.34;5002267;28;20400;-70
2022/09/02 08:37:48;;;;;;;1.65;1.42;;;;;;;24.61;39.98;101894.34;4999463;28;20045;-71
2022/09/02 08:40:20;;;;;;;2.28;1.50;;;;;;;24.63;40.18;101895.81;5003940;28;20084;-71
2022/09/02 08:42:52;;;;;;;1.58;1.48;;;;;;;24.63;40.25;101892.31;4993536;28;20073;-71
2022/09/02 08:45:35;;;;;;;2.25;1.50;;;;;;;24.64;39.98;101885.97;5004079;28;20076;-71
2022/09/02 08:48:19;;;;;;;1.95;1.73;;;;;;;24.60;40.26;101885.53;5002104;28;20388;-71
2022/09/02 08:50:46;;;;;;;2.00;1.80;;;;;;;24.60;40.19;101882.06;5000352;28;20044;-71
2022/09/02 08:53:31;;;;;;;1.95;1.77;;;;;;;24.59;40.22;101883.03;5001799;28;20096;-71
2022/09/02 08:56:00;;;;;;;2.17;1.73;;;;;;;24.62;40.45;101882.69;5002521;28;20484;-71
2022/09/02 08:58:37;;;;;;;3.40;1.83;;;;;;;24.63;40.42;101881.66;5003823;28;20049;-70
2022/09/02 09:01:11;;;;;;;2.47;1.63;;;;;;;24.64;40.16;101872.66;4996867;28;20046;-71
2022/09/02 09:04:08;;;;;;;1.92;1.60;;;;;;;24.62;40.19;101878.19;4998927;28;20044;-70
2022/09/02 09:06:33;;;;;;;1.83;1.65;;;;;;;24.65;40.22;101869.81;4978010;28;20058;-71
2022/09/02 09:09:14;;;;;;;3.08;1.65;;;;;;;24.67;40.11;101869.63;4999603;28;20040;-70
2022/09/02 09:11:51;;;;;;;1.58;1.48;;;;;;;24.65;40.24;101858.34;5002736;28;20041;-71
2022/09/02 09:14:34;;;;;;;1.73;1.60;;;;;;;24.69;40.30;101859.59;4999949;28;20102;-70
2022/09/02 09:17:09;;;;;;;2.60;1.80;;;;;;;24.66;40.14;101852.00;5002577;28;20112;-70
2022/09/02 09:19:46;;;;;;;1.65;1.55;;;;;;;24.65;40.25;101856.50;5003020;28;20069;-70
2022/09/02 09:22:16;;;;;;;1.80;1.50;;;;;;;24.65;40.36;101853.84;4999414;28;20141;-70
2022/09/02 09:24:44;;;;;;;1.67;1.58;;;;;;;24.69;40.21;101848.97;4982562;28;20121;-70
2022/09/02 09:27:21;;;;;;;2.08;1.65;;;;;;;24.69;40.01;101849.78;4998276;28;20049;-71
2022/09/02 09:29:48;;;;;;;1.70;1.60;;;;;;;24.68;40.09;101844.66;4998124;28;20455;-70
2022/09/02 09:32:37;;;;;;;2.72;1.65;;;;;;;24.66;40.09;101841.34;4984133;28;20129;-70
2022/09/02 09:35:06;;;;;;;;;;;;;;;24.69;40.10;101840.97;4998316;28;20503;-72
2022/09/02 09:37:34;;;;;;;1.80;1.70;;;;;;;24.69;40.00;101831.13;5001679;28;19917;-72
2022/09/02 09:40:00;;;;;;;1.65;1.45;;;;;;;24.70;40.26;101837.28;5001801;28;20029;-72
2022/09/02 09:42:34;;;;;;;1.50;1.40;;;;;;;24.69;40.01;101840.97;4982673;28;20504;-71
2022/09/02 09:44:59;;;;;;;2.25;1.90;;;;;;;24.68;40.28;101832.16;4996847;28;20112;-71
2022/09/02 09:47:25;;;;;;;2.15;1.85;;;;;;;24.71;40.05;101834.44;5000042;28;20069;-71
2022/09/02 09:50:07;;;;;;;2.33;1.70;;;;;;;24.71;40.12;101823.78;5002209;28;20095;-72
2022/09/02 09:52:32;;;;;;;2.55;1.80;;;;;;;24.70;40.09;101829.28;5000528;28;20057;-71
2022/09/02 09:55:12;;;;;;;2.55;1.90;;;;;;;24.69;40.17;101825.81;4984295;28;20408;-71
2022/09/02 09:57:39;;;;;;;1.33;1.33;;;;;;;24.71;40.07;101822.94;5005975;28;20037;-71
2022/09/02 10:00:30;;;;;;;1.55;1.45;;;;;;;24.68;40.21;101816.16;5000964;28;20033;-72
2022/09/02 10:03:03;;;;;;;1.67;1.55;;;;;;;24.71;40.12;101814.97;4999497;28;20123;-71
2022/09/02 10:05:36;;;;;;;3.50;2.00;;;;;;;24.69;40.20;101817.00;5002766;28;20034;-72
2022/09/02 10:08:20;;;;;;;2.03;1.77;;;;;;;24.71;40.22;101818.44;5001507;28;20073;-72
2022/09/02 10:10:56;;;;;;;1.98;1.80;;;;;;;24.68;40.05;101816.16;5002360;28;20340;-72
2022/09/02 10:13:28;;;;;;;1.70;1.60;;;;;;;24.69;39.92;101812.50;5000695;28;20472;-72
2022/09/02 10:16:06;;;;;;;1.65;1.55;;;;;;;24.69;40.05;101806.34;4981640;28;20420;-71
2022/09/02 10:18:55;;;;;;;2.45;1.83;;;;;;;24.76;39.96;101811.72;4999367;28;20038;-72
2022/09/02 10:21:58;;;;;;;2.00;1.50;;;;;;;24.74;39.99;101809.25;4998926;28;20062;-71
2022/09/02 10:24:41;;;;;;;3.65;1.70;;;;;;;24.71;39.88;101804.31;5003169;28;20038;-71
2022/09/02 10:27:14;;;;;;;2.58;1.65;;;;;;;24.72;39.94;101789.97;5003056;28;20038;-71
2022/09/02 10:30:03;;;;;;;1.98;1.67;;;;;;;24.79;39.74;101795.41;5005583;28;20503;-71
2022/09/02 10:32:35;;;;;;;1.83;1.67;;;;;;;24.73;40.14;101799.63;5003191;28;20511;-71
2022/09/02 10:35:32;;;;;;;1.98;1.77;;;;;;;24.73;39.96;101796.13;5004953;28;20037;-71
2022/09/02 10:38:20;;;;;;;2.15;1.80;;;;;;;24.73;40.04;101780.16;5000741;28;20029;-71
2022/09/02 10:40:57;;;;;;;2.30;1.90;;;;;;;24.71;40.01;101777.69;5005650;28;20094;-72
2022/09/02 10:43:43;;;;;;;2.60;1.88;;;;;;;24.76;39.87;101783.25;4996835;28;20041;-71
2022/09/02 10:46:09;;;;;;;2.10;1.83;;;;;;;24.74;39.89;101766.63;4955879;28;20081;-71
2022/09/02 10:48:53;;;;;;;2.40;1.95;;;;;;;24.76;39.60;101767.28;4998456;28;20888;-72
2022/09/02 10:51:46;;;;;;;2.42;2.03;;;;;;;24.76;39.44;101769.94;5001222;28;20597;-71
2022/09/02 10:54:38;;;;;;;2.60;1.60;;;;;;;24.76;39.77;101761.94;4995445;28;20038;-71
2022/09/02 10:57:22;;;;;;;2.17;1.95;;;;;;;24.63;39.90;101748.50;4997065;28;20044;-70
2022/09/02 11:00:11;;;;;;;2.65;2.05;;;;;;;24.73;39.76;101758.84;4995531;28;20124;-71
2022/09/02 11:02:58;;;;;;;2.03;1.77;;;;;;;24.72;39.93;101760.69;4999072;28;20411;-71
2022/09/02 11:05:51;;;;;;;2.03;1.80;;;;;;;24.76;39.88;101747.78;5001473;28;20112;-72
2022/09/02 11:08:49;;;;;;;2.08;1.60;;;;;;;24.76;40.01;101745.97;4998998;28;20064;-71
2022/09/02 11:11:21;;;;;;;2.33;1.75;;;;;;;24.71;39.70;101741.22;4943798;28;20058;-71
2022/09/02 11:14:01;;;;;;;3.95;2.38;;;;;;;24.75;39.70;101746.16;4997556;28;20765;-71
2022/09/02 11:16:31;;;;;;;2.33;1.77;;;;;;;24.78;39.76;101740.47;4995438;28;20488;-71
2022/09/02 11:19:26;;;;;;;2.30;2.05;;;;;;;24.81;39.46;101742.75;5003343;28;20033;-71
2022/09/02 11:22:23;;;;;;;2.85;2.40;;;;;;;24.71;39.93;101733.22;5002763;28;20121;-72
2022/09/02 11:25:01;;;;;;;3.28;2.53;;;;;;;24.78;39.75;101722.66;4974353;28;20050;-71
2022/09/02 11:27:35;;;;;;;3.13;2.50;;;;;;;24.76;39.76;101737.97;5001060;28;20041;-71
2022/09/02 11:30:10;;;;;;;3.88;2.50;;;;;;;24.74;39.78;101725.84;4997544;28;20042;-72
2022/09/02 11:33:00;;;;;;;2.65;2.20;;;;;;;24.77;39.65;101728.97;5004079;28;20041;-71
2022/09/02 11:35:27;;;;;;;;;;;;;;;24.77;39.46;101730.81;4999055;28;20041;-72
2022/09/02 11:38:04;;;;;;;3.90;2.13;;;;;;;24.80;39.49;101725.94;4993180;28;19924;-71
2022/09/02 11:40:29;;;;;;;3.25;2.28;;;;;;;24.74;39.40;101713.38;4977894;28;20034;-72
2022/09/02 11:43:37;;;;;;;2.80;2.10;;;;;;;24.76;39.30;101718.50;4994961;28;20060;-72
2022/09/02 11:46:24;;;;;;;4.00;2.30;;;;;;;24.77;39.51;101717.47;4967047;28;20054;-72